Time;durP1;ratioP1;P1;durP2;ratioP2;P2;SDS_P1;SDS_P2;PMS_P1;PMS_P2;Temp;Humidity;BMP_temperature;BMP_pressure;BME280_temperature;BME280_humidity;BME280_pressure;Samples;Min_cycle;Max_cycle;Signal;HPM_P1;HPM_P2
2023/12/09 00:00:26;;;;;;;11.65;10.45;;;4.60;99.90;;;;;;5228134;28;20060;-73
2023/12/09 00:02:57;;;;;;;11.73;9.98;;;4.60;99.90;;;;;;5230208;28;20029;-76
2023/12/09 00:05:28;;;;;;;10.60;9.60;;;4.50;99.90;;;;;;5229997;28;20021;-78
2023/12/09 00:07:58;;;;;;;10.60;9.50;;;4.40;99.90;;;;;;5229836;28;20049;-73
2023/12/09 00:10:29;;;;;;;10.35;9.30;;;4.60;99.90;;;;;;5230197;28;20025;-73
2023/12/09 00:13:00;;;;;;;11.57;9.43;;;4.50;99.90;;;;;;5229998;28;20033;-73
2023/12/09 00:15:31;;;;;;;10.95;9.70;;;4.50;99.90;;;;;;5230079;28;20473;-73
2023/12/09 00:18:02;;;;;;;12.27;9.32;;;4.60;99.90;;;;;;5229864;28;20028;-73
2023/12/09 00:20:34;;;;;;;10.32;9.13;;;4.70;99.90;;;;;;5229836;28;20027;-78
2023/12/09 00:23:05;;;;;;;11.05;9.10;;;4.60;99.90;;;;;;5229616;28;20029;-73
2023/12/09 00:25:36;;;;;;;11.52;8.38;;;4.70;99.90;;;;;;5229807;28;20112;-73
2023/12/09 00:28:07;;;;;;;11.88;9.75;;;4.60;99.90;;;;;;5211844;28;20246;-73
2023/12/09 00:30:38;;;;;;;9.63;8.55;;;4.60;99.90;;;;;;5229723;28;20025;-73
2023/12/09 00:33:09;;;;;;;9.30;8.02;;;4.60;99.90;;;;;;5229254;28;20027;-73
2023/12/09 00:35:40;;;;;;;10.73;8.73;;;4.60;99.90;;;;;;5229440;28;20079;-73
2023/12/09 00:38:11;;;;;;;10.27;7.82;;;4.60;99.90;;;;;;5228591;28;20373;-74
2023/12/09 00:40:41;;;;;;;9.07;8.15;;;4.60;99.90;;;;;;5229112;28;20032;-73
2023/12/09 00:43:12;;;;;;;8.98;7.70;;;4.60;99.90;;;;;;5228327;28;20025;-74
2023/12/09 00:45:43;;;;;;;10.13;8.32;;;4.50;99.90;;;;;;5228118;28;20028;-72
2023/12/09 00:48:14;;;;;;;10.60;7.50;;;4.60;99.90;;;;;;5210294;28;20029;-74
2023/12/09 00:50:45;;;;;;;10.23;7.88;;;4.60;99.90;;;;;;5228120;28;20040;-72
2023/12/09 00:53:16;;;;;;;11.20;7.82;;;4.60;99.90;;;;;;5228024;28;20051;-75
2023/12/09 00:55:47;;;;;;;10.25;8.00;;;4.60;99.90;;;;;;5228352;28;20185;-73
2023/12/09 00:58:18;;;;;;;9.65;8.50;;;4.50;99.90;;;;;;5211298;28;20025;-73
2023/12/09 01:00:49;;;;;;;9.88;8.90;;;4.70;99.90;;;;;;5229170;28;20040;-79
2023/12/09 01:03:19;;;;;;;9.98;8.98;;;4.60;99.90;;;;;;5211172;28;20358;-73
2023/12/09 01:05:50;;;;;;;10.18;9.15;;;4.60;99.90;;;;;;5210788;28;20029;-73
2023/12/09 01:08:21;;;;;;;9.98;8.98;;;4.60;99.90;;;;;;5228731;28;20053;-73
2023/12/09 01:10:53;;;;;;;10.25;9.23;;;4.60;99.90;;;;;;5227550;28;20044;-73
2023/12/09 01:13:24;;;;;;;11.55;8.90;;;4.60;99.90;;;;;;5228764;28;20048;-72
2023/12/09 01:15:55;;;;;;;12.93;8.65;;;4.60;99.90;;;;;;5228551;28;20452;-73
2023/12/09 01:18:26;;;;;;;9.55;7.85;;;4.60;99.90;;;;;;5228672;28;20013;-73
2023/12/09 01:20:57;;;;;;;11.30;9.35;;;4.60;99.90;;;;;;5228646;28;20346;-75
2023/12/09 01:23:27;;;;;;;10.20;8.43;;;4.60;99.90;;;;;;5228655;28;20029;-73
2023/12/09 01:25:58;;;;;;;9.45;8.45;;;4.60;99.90;;;;;;5210362;28;20377;-73
2023/12/09 01:28:29;;;;;;;9.60;8.57;;;4.50;99.90;;;;;;5228376;28;20025;-73
2023/12/09 01:31:00;;;;;;;11.07;9.93;;;4.50;99.90;;;;;;5228294;28;20044;-73
2023/12/09 01:33:32;;;;;;;11.68;10.13;;;4.50;99.90;;;;;;5228128;28;20032;-73
2023/12/09 01:36:03;;;;;;;12.45;10.82;;;4.50;99.90;;;;;;5227688;28;20025;-78
2023/12/09 01:38:36;;;;;;;11.90;10.68;;;4.50;99.90;;;;;;5209085;28;20025;-73
2023/12/09 01:41:07;;;;;;;11.65;10.27;;;4.60;99.90;;;;;;5209099;28;20033;-76
2023/12/09 01:43:38;;;;;;;11.95;10.65;;;4.60;99.90;;;;;;5226795;28;20058;-73
2023/12/09 01:46:12;;;;;;;13.50;10.18;;;4.60;99.90;;;;;;5226932;28;20029;-75
2023/12/09 01:48:44;;;;;;;12.35;10.63;;;4.50;99.90;;;;;;5208992;28;20441;-74
2023/12/09 01:51:17;;;;;;;16.08;11.38;;;4.50;99.90;;;;;;5226830;28;20483;-72
2023/12/09 01:53:48;;;;;;;13.70;12.18;;;4.50;99.90;;;;;;5227640;28;20092;-73
2023/12/09 01:56:21;;;;;;;14.30;12.43;;;4.40;99.90;;;;;;5228116;28;20433;-74
2023/12/09 01:58:51;;;;;;;13.30;11.90;;;4.40;99.90;;;;;;5227785;28;20035;-73
2023/12/09 02:01:25;;;;;;;14.45;12.77;;;4.30;99.90;;;;;;5227979;28;20108;-73
2023/12/09 02:03:56;;;;;;;14.73;12.82;;;4.30;99.90;;;;;;5227993;28;20060;-74
2023/12/09 02:06:27;;;;;;;16.58;12.52;;;4.30;99.90;;;;;;5227918;28;20029;-79
2023/12/09 02:08:58;;;;;;;13.00;11.70;;;4.40;99.90;;;;;;5227760;28;20051;-75
2023/12/09 02:12:00;;;;;;;13.20;11.52;;;4.40;99.90;;;;;;5227824;28;20037;-74
2023/12/09 02:14:38;;;;;;;13.43;11.45;;;4.40;99.90;;;;;;5227762;28;20048;-76
2023/12/09 02:17:19;;;;;;;14.15;11.52;;;4.40;99.90;;;;;;5209904;28;20025;-72
2023/12/09 02:19:51;;;;;;;12.75;10.43;;;4.40;99.90;;;;;;5227694;28;20115;-73
2023/12/09 02:22:22;;;;;;;12.02;10.70;;;4.40;99.90;;;;;;5209576;28;20490;-73
2023/12/09 02:24:53;;;;;;;12.63;10.15;;;4.40;99.90;;;;;;5227500;28;20131;-73
2023/12/09 02:27:57;;;;;;;14.98;10.88;;;4.40;99.90;;;;;;5227423;28;20044;-73
2023/12/09 02:30:56;;;;;;;13.15;9.68;;;4.30;99.90;;;;;;5226688;28;20108;-72
2023/12/09 02:33:29;;;;;;;11.60;9.98;;;4.20;99.90;;;;;;5217568;28;20455;-72
2023/12/09 02:36:03;;;;;;;11.32;9.50;;;4.10;99.90;;;;;;5225910;28;20074;-73
2023/12/09 02:38:37;;;;;;;12.23;9.98;;;4.10;99.90;;;;;;5226050;28;20039;-73
2023/12/09 02:41:09;;;;;;;11.10;9.40;;;4.10;99.90;;;;;;5225662;28;20017;-75
2023/12/09 02:43:41;;;;;;;10.30;9.30;;;4.10;99.90;;;;;;5225802;28;20044;-73
2023/12/09 02:46:15;;;;;;;12.77;9.02;;;4.10;99.90;;;;;;5225836;28;20108;-74
2023/12/09 02:48:46;;;;;;;10.27;8.80;;;4.20;99.90;;;;;;5226418;28;20025;-73
2023/12/09 02:51:16;;;;;;;12.55;10.27;;;4.10;99.90;;;;;;5226771;28;20495;-78
2023/12/09 02:53:47;;;;;;;20.00;10.05;;;4.10;99.90;;;;;;5226884;28;20021;-73
2023/12/09 02:56:18;;;;;;;11.23;9.15;;;4.10;99.90;;;;;;5226835;28;20028;-79
2023/12/09 02:58:49;;;;;;;10.88;9.75;;;4.10;99.90;;;;;;5226952;28;20025;-77
2023/12/09 03:01:20;;;;;;;12.90;9.77;;;4.00;99.90;;;;;;5226805;28;20109;-74
2023/12/09 03:03:51;;;;;;;12.57;9.52;;;4.00;99.90;;;;;;5208881;28;20024;-72
2023/12/09 03:06:22;;;;;;;12.32;10.02;;;4.00;99.90;;;;;;5226603;28;20450;-79
2023/12/09 03:08:52;;;;;;;12.60;9.77;;;3.90;99.90;;;;;;5226680;28;20053;-73
2023/12/09 03:11:23;;;;;;;11.30;10.10;;;4.00;99.90;;;;;;5226595;28;20025;-79
2023/12/09 03:13:54;;;;;;;9.90;8.93;;;4.00;99.90;;;;;;5226695;28;20827;-78
2023/12/09 03:16:25;;;;;;;10.77;9.68;;;4.00;99.90;;;;;;5226879;28;20021;-75
2023/12/09 03:18:56;;;;;;;10.45;9.35;;;4.00;99.90;;;;;;5226759;28;20040;-73
2023/12/09 03:21:27;;;;;;;11.15;9.90;;;3.90;99.90;;;;;;5226182;28;20021;-73
2023/12/09 03:23:58;;;;;;;12.20;10.10;;;4.00;99.90;;;;;;5226673;28;20566;-74
2023/12/09 03:26:28;;;;;;;13.77;10.23;;;4.00;99.90;;;;;;5225581;28;20049;-73
2023/12/09 03:28:59;;;;;;;13.77;10.57;;;4.00;99.90;;;;;;5225838;28;20033;-73
2023/12/09 03:31:30;;;;;;;13.25;11.10;;;3.80;99.90;;;;;;5224912;28;20041;-73
2023/12/09 03:34:01;;;;;;;11.90;10.35;;;4.00;99.90;;;;;;5224263;28;20116;-73
2023/12/09 03:36:32;;;;;;;12.70;9.90;;;3.90;99.90;;;;;;5224581;28;20082;-72
2023/12/09 03:39:03;;;;;;;11.65;10.18;;;3.90;99.90;;;;;;5225034;28;20021;-73
2023/12/09 03:41:34;;;;;;;12.82;11.02;;;3.90;99.90;;;;;;5225140;28;20384;-74
2023/12/09 03:44:05;;;;;;;15.27;10.73;;;4.00;99.90;;;;;;5207281;28;20117;-73
2023/12/09 03:46:36;;;;;;;12.23;10.57;;;3.90;99.90;;;;;;5226179;28;20104;-72
2023/12/09 03:49:07;;;;;;;11.88;10.68;;;3.90;99.90;;;;;;5226121;28;20028;-74
2023/12/09 03:51:38;;;;;;;13.10;10.90;;;3.80;99.90;;;;;;5225961;28;20118;-73
2023/12/09 03:54:09;;;;;;;12.93;10.55;;;4.00;99.90;;;;;;5225858;28;20025;-73
2023/12/09 03:56:40;;;;;;;12.50;10.43;;;3.90;99.90;;;;;;5225995;28;20037;-73
2023/12/09 03:59:11;;;;;;;12.15;10.65;;;3.90;99.90;;;;;;5208282;28;20033;-78
2023/12/09 04:01:49;;;;;;;11.52;10.43;;;3.90;99.90;;;;;;5225901;28;20025;-72
2023/12/09 04:04:20;;;;;;;12.27;11.05;;;3.80;99.90;;;;;;5225890;28;20036;-74
2023/12/09 04:06:51;;;;;;;15.23;11.15;;;3.80;99.90;;;;;;5225297;28;20377;-72
2023/12/09 04:09:22;;;;;;;12.55;10.93;;;3.70;99.90;;;;;;5225989;28;20037;-73
2023/12/09 04:11:53;;;;;;;12.13;9.93;;;3.70;99.90;;;;;;5225465;28;20094;-78
2023/12/09 04:14:24;;;;;;;12.88;9.65;;;3.80;99.90;;;;;;5207729;28;20040;-80
2023/12/09 04:16:55;;;;;;;12.15;10.63;;;3.70;99.90;;;;;;5225989;28;20059;-73
2023/12/09 04:19:25;;;;;;;12.30;10.88;;;3.80;99.90;;;;;;5225915;28;20025;-74
2023/12/09 04:21:56;;;;;;;14.00;10.80;;;3.80;99.90;;;;;;5225255;28;20029;-73
2023/12/09 04:24:27;;;;;;;11.60;9.18;;;3.80;99.90;;;;;;5225827;28;20435;-73
2023/12/09 04:26:58;;;;;;;13.15;10.55;;;3.80;99.90;;;;;;5224768;28;20024;-78
2023/12/09 04:29:29;;;;;;;13.88;11.40;;;3.80;99.90;;;;;;5224754;28;20017;-74
2023/12/09 04:32:00;;;;;;;14.02;11.70;;;3.80;99.90;;;;;;5224555;28;20041;-73
2023/12/09 04:34:31;;;;;;;13.43;10.63;;;3.80;99.90;;;;;;5224341;28;20029;-74
2023/12/09 04:37:02;;;;;;;12.55;11.18;;;3.70;99.90;;;;;;5224341;28;20120;-73
2023/12/09 04:39:33;;;;;;;13.70;11.80;;;3.80;99.90;;;;;;5224499;28;20033;-74
2023/12/09 04:42:04;;;;;;;13.50;10.15;;;3.80;99.90;;;;;;5225689;28;20025;-72
2023/12/09 04:44:35;;;;;;;11.18;9.65;;;3.70;99.90;;;;;;5225722;28;20079;-73
2023/12/09 04:47:06;;;;;;;11.52;10.32;;;3.80;99.90;;;;;;5227427;28;20025;-74
2023/12/09 04:49:37;;;;;;;14.15;11.52;;;3.70;99.90;;;;;;5211567;28;20032;-77
2023/12/09 04:52:08;;;;;;;15.55;11.60;;;3.80;99.90;;;;;;5229105;28;20488;-73
2023/12/09 04:54:39;;;;;;;13.05;10.40;;;3.80;99.90;;;;;;5229189;28;20032;-72
2023/12/09 04:57:09;;;;;;;13.02;10.88;;;3.80;99.90;;;;;;5229310;28;20033;-75
2023/12/09 04:59:40;;;;;;;13.38;11.98;;;3.80;99.90;;;;;;5229181;28;20053;-73
2023/12/09 05:02:11;;;;;;;12.45;11.23;;;3.80;99.90;;;;;;5228937;28;20056;-78
2023/12/09 05:04:42;;;;;;;14.80;11.45;;;3.70;99.90;;;;;;5211316;28;20086;-73
2023/12/09 05:07:14;;;;;;;18.38;13.07;;;3.80;99.90;;;;;;5228426;28;20051;-74
2023/12/09 05:09:45;;;;;;;14.32;11.25;;;3.80;99.90;;;;;;5229184;28;20036;-73
2023/12/09 05:12:15;;;;;;;12.43;11.10;;;3.80;99.90;;;;;;5228701;28;20036;-79
2023/12/09 05:14:46;;;;;;;16.60;13.00;;;3.80;99.90;;;;;;5210956;28;20055;-78
2023/12/09 05:17:17;;;;;;;13.85;12.48;;;3.80;99.90;;;;;;5228554;28;20473;-74
2023/12/09 05:19:48;;;;;;;16.55;11.98;;;3.80;99.90;;;;;;5228316;28;20079;-72
2023/12/09 05:22:19;;;;;;;17.60;13.82;;;3.80;99.90;;;;;;5227703;28;20017;-72
2023/12/09 05:24:51;;;;;;;16.83;12.45;;;3.70;99.90;;;;;;5227352;28;20025;-72
2023/12/09 05:27:22;;;;;;;16.23;14.35;;;3.70;99.90;;;;;;5227323;28;20017;-72
2023/12/09 05:29:53;;;;;;;16.15;13.23;;;3.60;99.90;;;;;;5209570;28;20021;-73
2023/12/09 05:32:24;;;;;;;16.52;13.13;;;3.70;99.90;;;;;;5227348;28;20095;-73
2023/12/09 05:34:55;;;;;;;16.90;13.15;;;3.70;99.90;;;;;;5227256;28;20025;-74
2023/12/09 05:37:25;;;;;;;16.13;13.68;;;3.70;99.90;;;;;;5209788;28;20098;-73
2023/12/09 05:39:56;;;;;;;20.17;14.18;;;3.70;99.90;;;;;;5228427;28;20021;-74
2023/12/09 05:42:27;;;;;;;18.90;14.02;;;3.60;99.90;;;;;;5228470;28;20035;-73
2023/12/09 05:44:58;;;;;;;15.98;12.73;;;3.70;99.90;;;;;;5228466;28;20029;-74
2023/12/09 05:47:29;;;;;;;20.42;13.18;;;3.60;99.90;;;;;;5228257;28;20068;-73
2023/12/09 05:50:00;;;;;;;16.40;12.75;;;3.70;99.90;;;;;;5210160;28;20064;-73
2023/12/09 05:52:31;;;;;;;16.00;12.65;;;3.70;99.90;;;;;;5228062;28;20044;-73
2023/12/09 05:55:02;;;;;;;12.85;10.80;;;3.80;99.90;;;;;;5228185;28;20096;-76
2023/12/09 05:57:33;;;;;;;12.68;11.38;;;3.80;99.90;;;;;;5227727;28;20028;-79
2023/12/09 06:00:05;;;;;;;13.85;10.38;;;3.80;99.90;;;;;;5227925;28;20025;-72
2023/12/09 06:02:36;;;;;;;10.63;9.52;;;3.90;99.90;;;;;;5227812;28;20025;-73
2023/12/09 06:05:07;;;;;;;12.60;9.60;;;3.90;99.90;;;;;;5227901;28;20107;-72
2023/12/09 06:07:38;;;;;;;14.75;11.00;;;3.80;99.90;;;;;;5209805;28;20044;-73
2023/12/09 06:10:09;;;;;;;11.18;9.20;;;3.80;99.90;;;;;;5227552;28;20511;-73
2023/12/09 06:12:41;;;;;;;10.32;7.93;;;3.80;99.90;;;;;;5227489;28;20040;-73
2023/12/09 06:15:13;;;;;;;11.98;8.02;;;3.80;99.90;;;;;;5226748;28;20025;-73
2023/12/09 06:17:44;;;;;;;12.90;9.05;;;3.80;99.90;;;;;;5226826;28;20044;-74
2023/12/09 06:20:15;;;;;;;10.57;7.93;;;3.70;99.90;;;;;;5226066;28;20029;-74
2023/12/09 06:22:46;;;;;;;9.00;8.10;;;3.70;99.90;;;;;;5226266;28;20021;-74
2023/12/09 06:25:16;;;;;;;11.43;8.63;;;3.70;99.90;;;;;;5226157;28;20039;-73
2023/12/09 06:27:47;;;;;;;10.05;8.25;;;3.80;99.90;;;;;;5226033;28;20476;-73
2023/12/09 06:30:18;;;;;;;9.82;6.85;;;3.70;99.90;;;;;;5226288;28;20035;-75
2023/12/09 06:32:49;;;;;;;9.70;8.07;;;3.80;99.90;;;;;;5226393;28;20068;-73
2023/12/09 06:35:20;;;;;;;7.43;6.70;;;3.70;99.90;;;;;;5209475;28;20531;-72
2023/12/09 06:37:54;;;;;;;9.43;7.97;;;3.80;99.90;;;;;;5227054;28;20100;-74
2023/12/09 06:40:25;;;;;;;8.95;8.00;;;3.80;99.90;;;;;;5227104;28;20115;-73
2023/12/09 06:42:56;;;;;;;7.13;6.43;;;3.80;99.90;;;;;;5227283;28;20100;-73
2023/12/09 06:45:27;;;;;;;8.75;7.35;;;3.80;99.90;;;;;;5208382;28;20071;-74
2023/12/09 06:47:57;;;;;;;8.50;7.47;;;3.80;99.90;;;;;;5208210;28;20025;-73
2023/12/09 06:50:28;;;;;;;10.27;8.23;;;3.80;99.90;;;;;;5226472;28;20112;-79
2023/12/09 06:53:02;;;;;;;7.75;6.82;;;3.80;99.90;;;;;;5209117;28;20033;-74
2023/12/09 06:55:33;;;;;;;10.43;6.82;;;3.80;99.90;;;;;;5227257;28;20025;-73
2023/12/09 06:58:04;;;;;;;8.73;6.82;;;3.70;99.90;;;;;;5226835;28;20542;-77
2023/12/09 07:00:37;;;;;;;8.57;7.65;;;3.70;99.90;;;;;;5226917;28;20091;-72
2023/12/09 07:03:07;;;;;;;9.85;7.43;;;3.70;99.90;;;;;;5226737;28;20101;-73
2023/12/09 07:05:38;;;;;;;10.35;7.10;;;3.80;99.90;;;;;;5226619;28;20440;-73
2023/12/09 07:08:10;;;;;;;10.07;7.38;;;3.70;99.90;;;;;;5208435;28;20051;-73
2023/12/09 07:10:46;;;;;;;8.52;7.43;;;3.80;99.90;;;;;;5224482;28;20677;-73
2023/12/09 07:13:17;;;;;;;11.93;7.68;;;3.80;99.90;;;;;;5207916;28;20037;-73
2023/12/09 07:15:47;;;;;;;9.23;6.93;;;3.80;99.90;;;;;;5225009;28;20029;-73
2023/12/09 07:18:18;;;;;;;9.48;8.18;;;3.90;99.90;;;;;;5207211;28;20078;-74
2023/12/09 07:20:49;;;;;;;9.45;7.53;;;3.90;99.90;;;;;;5206821;28;20029;-73
2023/12/09 07:23:20;;;;;;;9.23;7.38;;;3.80;99.90;;;;;;5224988;28;20033;-72
2023/12/09 07:25:51;;;;;;;10.48;7.72;;;3.90;99.90;;;;;;5225384;28;20028;-73
2023/12/09 07:28:22;;;;;;;10.00;7.50;;;3.80;99.90;;;;;;5225311;28;20017;-73
2023/12/09 07:30:52;;;;;;;11.95;8.52;;;3.90;99.90;;;;;;5208312;28;20029;-74
2023/12/09 07:33:24;;;;;;;10.90;7.93;;;3.90;99.90;;;;;;5226228;28;20079;-74
2023/12/09 07:35:55;;;;;;;10.65;8.73;;;3.90;99.90;;;;;;5208275;28;20128;-73
2023/12/09 07:38:27;;;;;;;10.10;7.60;;;3.90;99.90;;;;;;5226161;28;20029;-74
2023/12/09 07:40:58;;;;;;;7.82;6.43;;;3.90;99.90;;;;;;5226129;28;20028;-73
2023/12/09 07:43:29;;;;;;;9.65;6.88;;;4.00;99.90;;;;;;5226240;28;20029;-78
2023/12/09 07:45:59;;;;;;;8.25;6.95;;;4.00;99.90;;;;;;5226290;28;20481;-74
2023/12/09 07:48:31;;;;;;;9.02;6.47;;;4.00;99.90;;;;;;5226280;28;20032;-73
2023/12/09 07:51:01;;;;;;;8.27;6.78;;;4.00;99.90;;;;;;5226039;28;20036;-72
2023/12/09 07:53:32;;;;;;;8.65;7.70;;;4.10;99.90;;;;;;5225725;28;20033;-78
2023/12/09 07:56:03;;;;;;;7.65;6.97;;;4.10;99.90;;;;;;5226236;28;20151;-73
2023/12/09 07:58:34;;;;;;;10.70;7.45;;;4.10;99.90;;;;;;5226180;28;20025;-77
2023/12/09 08:01:05;;;;;;;8.30;6.55;;;4.10;99.90;;;;;;5226145;28;20416;-76
2023/12/09 08:03:36;;;;;;;7.78;6.65;;;4.20;99.90;;;;;;5208496;28;20083;-73
2023/12/09 08:06:07;;;;;;;7.88;5.50;;;4.10;99.90;;;;;;5207669;28;20053;-72
2023/12/09 08:08:39;;;;;;;7.68;6.03;;;4.10;99.90;;;;;;5207791;28;20447;-73
2023/12/09 08:11:10;;;;;;;7.65;6.57;;;4.00;99.90;;;;;;5224706;28;20025;-73
2023/12/09 08:13:43;;;;;;;8.02;6.65;;;4.00;99.90;;;;;;5224641;28;20032;-78
2023/12/09 08:16:13;;;;;;;9.82;8.15;;;4.00;99.90;;;;;;5224613;28;20108;-73
2023/12/09 08:18:44;;;;;;;10.00;7.80;;;4.10;99.90;;;;;;5224614;28;20144;-75
2023/12/09 08:21:15;;;;;;;7.63;6.93;;;4.10;99.90;;;;;;5227263;28;20020;-74
2023/12/09 08:23:46;;;;;;;9.02;7.63;;;4.20;99.90;;;;;;5229089;28;20028;-74
2023/12/09 08:26:18;;;;;;;7.78;6.88;;;4.20;99.90;;;;;;5229870;28;20024;-74
2023/12/09 08:28:48;;;;;;;10.55;7.82;;;4.20;99.90;;;;;;5229742;28;20025;-72
2023/12/09 08:31:19;;;;;;;8.10;6.82;;;4.20;99.90;;;;;;5229591;28;20059;-73
2023/12/09 08:33:50;;;;;;;9.23;7.47;;;4.10;99.90;;;;;;5229652;28;20539;-72
2023/12/09 08:36:21;;;;;;;9.07;6.57;;;4.20;99.90;;;;;;5229373;28;20095;-73
2023/12/09 08:38:52;;;;;;;9.32;7.30;;;4.20;99.90;;;;;;5229645;28;20481;-78
2023/12/09 08:41:23;;;;;;;8.10;6.93;;;4.10;99.90;;;;;;5211621;28;20458;-73
2023/12/09 08:43:53;;;;;;;8.43;6.88;;;4.10;99.90;;;;;;5229356;28;20017;-73
2023/12/09 08:46:24;;;;;;;10.05;7.45;;;4.20;99.90;;;;;;5229258;28;20037;-78
2023/12/09 08:48:55;;;;;;;10.48;7.05;;;4.20;99.90;;;;;;5229260;28;20451;-77
2023/12/09 08:51:26;;;;;;;7.78;6.40;;;4.20;99.90;;;;;;5229113;28;20040;-77
2023/12/09 08:53:57;;;;;;;7.90;7.05;;;4.30;99.90;;;;;;5229000;28;20029;-73
2023/12/09 08:56:28;;;;;;;8.85;6.93;;;4.20;99.90;;;;;;5229159;28;20124;-79
2023/12/09 08:58:59;;;;;;;9.88;6.95;;;4.10;99.90;;;;;;5229058;28;20084;-74
2023/12/09 09:01:30;;;;;;;8.93;7.25;;;4.10;99.90;;;;;;5210883;28;20037;-73
2023/12/09 09:04:01;;;;;;;9.80;7.32;;;4.10;99.90;;;;;;5228766;28;20062;-73
2023/12/09 09:06:32;;;;;;;8.80;7.18;;;4.10;99.90;;;;;;5227692;28;20635;-73
2023/12/09 09:09:04;;;;;;;8.77;7.60;;;4.10;99.90;;;;;;5227548;28;20037;-73
2023/12/09 09:11:34;;;;;;;10.15;8.13;;;4.20;99.90;;;;;;5227637;28;20554;-77
2023/12/09 09:14:05;;;;;;;11.55;8.57;;;4.30;99.90;;;;;;5227695;28;20017;-73
2023/12/09 09:16:36;;;;;;;10.85;8.65;;;4.10;99.90;;;;;;5227984;28;20056;-73
2023/12/09 09:19:07;;;;;;;10.50;8.82;;;4.10;99.90;;;;;;5227650;28;20538;-73
2023/12/09 09:21:40;;;;;;;12.73;9.00;;;4.20;99.90;;;;;;5228607;28;20028;-78
2023/12/09 09:24:11;;;;;;;12.25;9.90;;;4.20;99.90;;;;;;5228810;28;20025;-74
2023/12/09 09:26:42;;;;;;;11.85;10.00;;;4.00;99.90;;;;;;5228805;28;20021;-76
2023/12/09 09:29:13;;;;;;;11.63;8.20;;;4.20;99.90;;;;;;5228325;28;20028;-73
2023/12/09 09:31:43;;;;;;;11.02;8.85;;;4.20;99.90;;;;;;5227884;28;20044;-72
2023/12/09 09:34:14;;;;;;;8.95;8.05;;;4.20;99.90;;;;;;5210321;28;20485;-74
2023/12/09 09:36:45;;;;;;;11.43;8.80;;;4.10;99.90;;;;;;5228481;28;20030;-72
2023/12/09 09:39:17;;;;;;;11.15;8.15;;;4.20;99.90;;;;;;5210621;28;20037;-75
2023/12/09 09:42:19;;;;;;;8.55;7.72;;;4.20;99.90;;;;;;5228452;28;20020;-73
2023/12/09 09:45:24;;;;;;;10.75;8.25;;;4.20;99.90;;;;;;5210377;28;20032;-74
2023/12/09 09:47:55;;;;;;;9.07;7.78;;;4.20;99.90;;;;;;5210230;28;20359;-75
2023/12/09 09:50:26;;;;;;;10.70;9.43;;;4.10;99.90;;;;;;5210480;28;20087;-73
2023/12/09 09:52:59;;;;;;;9.95;8.68;;;4.20;99.90;;;;;;5228082;28;20102;-74
2023/12/09 09:55:30;;;;;;;12.23;8.60;;;4.30;99.90;;;;;;5228012;28;20040;-73
2023/12/09 09:58:02;;;;;;;10.23;8.10;;;4.10;99.90;;;;;;5227186;28;20021;-73
2023/12/09 10:00:33;;;;;;;13.70;9.38;;;4.20;99.90;;;;;;5227226;28;20035;-73
2023/12/09 10:03:04;;;;;;;11.40;9.38;;;4.30;99.90;;;;;;5226473;28;20077;-73
2023/12/09 10:05:35;;;;;;;11.90;9.02;;;4.30;99.90;;;;;;5688626;22;20081;-75
2023/12/09 10:08:05;;;;;;;10.88;9.25;;;4.20;99.90;;;;;;5206194;28;20026;-73
2023/12/09 10:10:37;;;;;;;11.43;8.77;;;4.20;99.90;;;;;;5205641;28;20028;-73
2023/12/09 10:13:08;;;;;;;11.88;10.05;;;4.20;99.90;;;;;;5205728;28;20692;-73
2023/12/09 10:15:39;;;;;;;13.48;9.45;;;4.30;99.90;;;;;;5205937;28;20774;-74
2023/12/09 10:18:14;;;;;;;12.35;9.60;;;4.20;99.90;;;;;;5207050;28;20029;-73
2023/12/09 10:20:45;;;;;;;15.40;10.90;;;4.20;99.90;;;;;;5207053;28;20105;-77
2023/12/09 10:23:16;;;;;;;14.20;10.45;;;4.30;99.90;;;;;;5206240;28;20029;-73
2023/12/09 10:25:47;;;;;;;18.70;12.15;;;4.30;99.90;;;;;;5206810;28;20045;-79
2023/12/09 10:28:19;;;;;;;15.65;10.57;;;4.40;99.90;;;;;;5206678;28;20041;-72
2023/12/09 10:30:50;;;;;;;14.10;8.90;;;4.40;99.90;;;;;;5206801;28;20373;-74
2023/12/09 10:33:21;;;;;;;9.70;7.88;;;4.40;99.90;;;;;;5206891;28;20500;-72
2023/12/09 10:35:53;;;;;;;14.13;9.43;;;4.20;99.90;;;;;;5206667;28;20053;-79
2023/12/09 10:38:23;;;;;;;10.18;9.10;;;4.30;99.90;;;;;;5206664;28;20030;-78
2023/12/09 10:40:55;;;;;;;10.32;8.98;;;4.30;99.90;;;;;;5206668;28;20477;-73
2023/12/09 10:43:26;;;;;;;12.32;9.68;;;4.40;99.90;;;;;;5206693;28;20026;-76
2023/12/09 10:45:58;;;;;;;11.50;9.82;;;4.40;99.90;;;;;;5206670;28;20373;-76
2023/12/09 10:48:30;;;;;;;12.63;9.93;;;4.40;99.90;;;;;;5206492;28;20037;-78
2023/12/09 10:51:01;;;;;;;16.13;11.18;;;4.50;99.90;;;;;;5206356;28;20057;-75
2023/12/09 10:53:32;;;;;;;14.13;10.68;;;4.40;99.90;;;;;;5205550;28;20084;-74
2023/12/09 10:56:04;;;;;;;10.63;9.00;;;4.50;99.90;;;;;;5205963;28;20022;-73
2023/12/09 10:58:36;;;;;;;10.93;8.98;;;4.40;99.90;;;;;;5205013;28;20393;-73
2023/12/09 11:01:07;;;;;;;10.95;9.73;;;4.50;99.90;;;;;;5205041;28;20030;-73
2023/12/09 11:03:39;;;;;;;10.77;9.68;;;4.40;99.90;;;;;;5204823;28;20029;-73
2023/12/09 11:06:11;;;;;;;12.48;9.43;;;4.40;99.90;;;;;;5660052;22;20089;-75
2023/12/09 11:08:43;;;;;;;9.77;8.80;;;4.50;99.90;;;;;;5205044;28;20037;-73
2023/12/09 11:11:15;;;;;;;9.63;8.13;;;4.50;99.90;;;;;;5205328;28;20125;-74
2023/12/09 11:13:48;;;;;;;9.45;8.10;;;4.50;99.90;;;;;;5205973;28;20474;-73
2023/12/09 11:16:21;;;;;;;12.32;9.02;;;4.50;99.90;;;;;;5206160;28;20488;-77
2023/12/09 11:18:54;;;;;;;10.77;9.63;;;4.50;99.90;;;;;;5205968;28;20372;-73
2023/12/09 11:21:26;;;;;;;13.05;11.75;;;4.60;99.90;;;;;;5205792;28;20421;-72
2023/12/09 11:23:59;;;;;;;10.25;8.65;;;4.60;99.90;;;;;;5205727;28;20037;-73
2023/12/09 11:26:31;;;;;;;11.38;8.63;;;4.50;99.90;;;;;;5205777;28;20469;-73
2023/12/09 11:29:04;;;;;;;12.50;10.15;;;4.40;99.90;;;;;;5205913;28;20108;-77
2023/12/09 11:31:41;;;;;;;10.18;9.02;;;4.50;99.90;;;;;;5205904;28;20140;-72
2023/12/09 11:34:22;;;;;;;10.20;8.65;;;4.50;99.90;;;;;;5205643;28;20036;-77
2023/12/09 11:36:55;;;;;;;11.82;9.18;;;4.60;99.90;;;;;;5199718;28;20075;-79
2023/12/09 11:39:27;;;;;;;9.98;8.95;;;4.60;99.90;;;;;;5205906;28;20083;-72
2023/12/09 11:41:59;;;;;;;10.20;8.70;;;4.50;99.90;;;;;;5205750;28;20100;-76
2023/12/09 11:44:31;;;;;;;11.43;10.30;;;4.30;99.90;;;;;;5205755;28;20049;-74
2023/12/09 11:47:04;;;;;;;12.05;10.15;;;4.40;99.90;;;;;;5205703;28;20025;-78
2023/12/09 11:49:36;;;;;;;12.05;9.75;;;4.40;99.90;;;;;;5204887;28;20543;-74
2023/12/09 11:52:08;;;;;;;14.45;12.98;;;4.30;99.90;;;;;;5187740;28;20041;-74
2023/12/09 11:54:38;;;;;;;14.70;10.70;;;4.30;99.90;;;;;;5204384;28;20025;-73
2023/12/09 11:57:09;;;;;;;12.05;9.25;;;4.40;99.90;;;;;;5190401;28;20421;-74
2023/12/09 11:59:40;;;;;;;14.60;11.75;;;4.40;99.90;;;;;;5208418;28;20035;-75
2023/12/09 12:02:11;;;;;;;11.27;10.05;;;4.50;99.90;;;;;;5208405;28;20021;-74
2023/12/09 12:04:42;;;;;;;11.15;8.45;;;4.50;99.90;;;;;;5208250;28;20034;-74
2023/12/09 12:07:13;;;;;;;10.32;8.32;;;4.40;99.90;;;;;;5208045;28;20056;-78
2023/12/09 12:09:44;;;;;;;10.77;8.55;;;4.30;99.90;;;;;;5191800;28;20030;-74
2023/12/09 12:12:14;;;;;;;9.27;7.57;;;4.30;99.90;;;;;;5209261;28;20454;-77
2023/12/09 12:14:46;;;;;;;8.98;8.07;;;4.20;99.90;;;;;;5209277;28;20424;-77
2023/12/09 12:17:17;;;;;;;11.90;8.73;;;4.40;99.90;;;;;;5209353;28;20029;-74
2023/12/09 12:19:48;;;;;;;10.65;9.48;;;4.30;99.90;;;;;;5209380;28;20021;-77
2023/12/09 12:22:19;;;;;;;12.75;9.13;;;4.40;99.90;;;;;;5209011;28;20104;-76
2023/12/09 12:24:50;;;;;;;12.25;8.63;;;4.40;99.90;;;;;;5209258;28;20500;-73
2023/12/09 12:27:21;;;;;;;12.35;9.82;;;4.40;99.90;;;;;;5209179;28;20461;-72
2023/12/09 12:29:52;;;;;;;11.30;9.75;;;4.30;99.90;;;;;;5209037;28;20049;-77
2023/12/09 12:32:23;;;;;;;9.20;8.00;;;4.50;99.90;;;;;;5208639;28;20037;-75
2023/12/09 12:34:53;;;;;;;8.65;7.80;;;4.40;99.90;;;;;;5208843;28;20029;-73
2023/12/09 12:37:24;;;;;;;7.47;6.75;;;4.30;99.90;;;;;;5208867;28;20038;-75
2023/12/09 12:39:56;;;;;;;12.32;10.05;;;4.40;99.90;;;;;;5208850;28;20014;-74
2023/12/09 12:42:27;;;;;;;9.55;8.35;;;4.30;99.90;;;;;;5208791;28;20393;-76
2023/12/09 12:44:58;;;;;;;11.05;8.60;;;4.40;99.90;;;;;;5207954;28;20033;-74
2023/12/09 12:47:29;;;;;;;9.23;7.22;;;4.30;99.90;;;;;;5208377;28;20033;-74
2023/12/09 12:50:00;;;;;;;7.97;7.00;;;4.30;99.90;;;;;;5207199;28;20037;-74
2023/12/09 12:52:31;;;;;;;7.53;6.75;;;4.30;99.90;;;;;;5207109;28;20113;-73
2023/12/09 12:55:03;;;;;;;9.27;8.32;;;4.40;99.90;;;;;;5207515;28;20029;-74
2023/12/09 12:57:34;;;;;;;10.90;9.70;;;4.20;99.90;;;;;;5207480;28;20108;-73
2023/12/09 13:00:07;;;;;;;8.50;7.32;;;4.20;99.90;;;;;;5207751;28;20025;-74
2023/12/09 13:02:38;;;;;;;10.45;7.97;;;4.10;99.90;;;;;;5207273;28;20079;-74
2023/12/09 13:05:09;;;;;;;10.05;7.18;;;4.10;99.90;;;;;;5208418;28;20022;-73
2023/12/09 13:07:40;;;;;;;8.88;7.97;;;4.20;99.90;;;;;;5206966;28;20087;-75